Time;durP1;ratioP1;P1;durP2;ratioP2;P2;SDS_P1;SDS_P2;PMS_P1;PMS_P2;Temp;Humidity;BMP_temperature;BMP_pressure;BME280_temperature;BME280_humidity;BME280_pressure;Samples;Min_cycle;Max_cycle;Signal;HPM_P1;HPM_P2
2022/05/19 00:02:09;;;;;;;22.20;5.15;;;;;;;;;;5111895;28;20031;-68
2022/05/19 00:04:34;;;;;;;20.02;6.05;;;;;;;;;;5107083;28;20063;-68
2022/05/19 00:06:59;;;;;;;16.88;6.40;;;;;;;;;;5110163;28;20048;-68
2022/05/19 00:09:25;;;;;;;20.75;6.40;;;;;;;;;;5113709;28;20134;-68
2022/05/19 00:11:51;;;;;;;23.75;6.32;;;;;;;;;;5102734;28;20078;-68
2022/05/19 00:14:17;;;;;;;36.00;7.38;;;;;;;;;;5114827;28;20015;-68
2022/05/19 00:16:42;;;;;;;26.27;7.57;;;;;;;;;;5114794;28;20051;-68
2022/05/19 00:19:07;;;;;;;29.13;7.28;;;;;;;;;;5114703;28;20035;-68
2022/05/19 00:21:33;;;;;;;20.70;6.53;;;;;;;;;;5114696;28;20032;-68
2022/05/19 00:23:58;;;;;;;29.40;7.30;;;;;;;;;;5114796;28;20108;-68
2022/05/19 00:26:24;;;;;;;58.17;8.13;;;;;;;;;;5114305;28;20118;-68
2022/05/19 00:28:49;;;;;;;27.10;6.93;;;;;;;;;;5114416;28;20022;-68
2022/05/19 00:31:15;;;;;;;30.80;6.93;;;;;;;;;;5114580;28;20019;-68
2022/05/19 00:33:41;;;;;;;41.10;8.43;;;;;;;;;;5114701;28;20063;-68
2022/05/19 00:36:11;;;;;;;44.30;9.68;;;;;;;;;;5114417;28;20063;-68
2022/05/19 00:38:36;;;;;;;32.13;8.60;;;;;;;;;;5114631;28;20032;-68
2022/05/19 00:41:02;;;;;;;50.03;9.77;;;;;;;;;;5114271;28;20039;-68
2022/05/19 00:43:32;;;;;;;60.47;9.73;;;;;;;;;;5114351;28;20442;-68
2022/05/19 00:46:03;;;;;;;215.60;17.38;;;;;;;;;;5114108;28;20478;-68
2022/05/19 00:48:35;;;;;;;45.38;8.40;;;;;;;;;;5114221;28;20096;-68
2022/05/19 00:51:05;;;;;;;36.17;7.32;;;;;;;;;;5086835;28;20085;-68
2022/05/19 00:53:39;;;;;;;36.10;7.40;;;;;;;;;;5112779;28;20084;-68
2022/05/19 00:56:12;;;;;;;49.65;9.95;;;;;;;;;;5114156;28;20114;-68
2022/05/19 00:58:40;;;;;;;37.95;8.73;;;;;;;;;;5107901;28;20027;-68
2022/05/19 01:01:06;;;;;;;39.90;8.95;;;;;;;;;;5114054;28;20071;-68
2022/05/19 01:03:35;;;;;;;51.60;10.52;;;;;;;;;;5114007;28;20085;-68
2022/05/19 01:06:02;;;;;;;51.58;11.10;;;;;;;;;;5113990;28;20027;-68
2022/05/19 01:08:32;;;;;;;62.35;10.68;;;;;;;;;;5113336;28;20036;-68
2022/05/19 01:10:58;;;;;;;67.32;11.93;;;;;;;;;;5113815;28;20035;-68
2022/05/19 01:13:29;;;;;;;281.40;16.45;;;;;;;;;;5113537;28;20019;-68
2022/05/19 01:15:55;;;;;;;102.97;9.60;;;;;;;;;;5103580;28;20028;-68
2022/05/19 01:18:20;;;;;;;87.40;9.38;;;;;;;;;;5104379;28;20043;-68
2022/05/19 01:20:46;;;;;;;55.58;8.77;;;;;;;;;;5113942;28;20052;-68
2022/05/19 01:23:47;;;;;;;52.17;8.90;;;;;;;;;;5113231;28;20024;-68
2022/05/19 01:26:19;;;;;;;36.70;8.23;;;;;;;;;;5021579;28;20484;-68
2022/05/19 01:28:46;;;;;;;44.45;8.85;;;;;;;;;;5088306;28;20096;-68
2022/05/19 01:31:27;;;;;;;47.67;8.52;;;;;;;;;;5113288;28;20421;-68
2022/05/19 01:33:53;;;;;;;42.47;9.05;;;;;;;;;;5110254;28;20028;-68
2022/05/19 01:36:18;;;;;;;40.85;8.63;;;;;;;;;;5113823;28;20116;-68
2022/05/19 01:38:43;;;;;;;71.05;9.27;;;;;;;;;;5113490;28;20042;-68
2022/05/19 01:41:24;;;;;;;50.28;8.55;;;;;;;;;;5113579;28;20039;-68
2022/05/19 01:43:58;;;;;;;39.67;8.32;;;;;;;;;;5113379;28;20032;-69
2022/05/19 01:46:26;;;;;;;36.63;7.85;;;;;;;;;;5113653;28;20069;-68
2022/05/19 01:48:57;;;;;;;48.63;8.77;;;;;;;;;;5113391;28;20034;-68
2022/05/19 01:51:29;;;;;;;52.90;9.27;;;;;;;;;;5103400;28;20022;-68
2022/05/19 01:54:06;;;;;;;57.88;9.15;;;;;;;;;;5112971;28;20578;-68
2022/05/19 01:56:35;;;;;;;53.47;8.95;;;;;;;;;;5113075;28;20394;-68
2022/05/19 01:59:10;;;;;;;79.30;9.80;;;;;;;;;;5112965;28;20034;-68
2022/05/19 02:01:35;;;;;;;63.67;9.50;;;;;;;;;;5113295;28;20047;-68
2022/05/19 02:04:10;;;;;;;54.42;8.50;;;;;;;;;;5113341;28;20382;-68
2022/05/19 02:06:38;;;;;;;65.15;8.43;;;;;;;;;;5100421;28;20063;-68
2022/05/19 02:09:16;;;;;;;39.25;7.80;;;;;;;;;;5110751;28;20019;-68
2022/05/19 02:11:43;;;;;;;42.35;7.22;;;;;;;;;;5110610;28;20032;-68
2022/05/19 02:14:12;;;;;;;48.50;8.13;;;;;;;;;;5102952;28;20124;-68
2022/05/19 02:16:37;;;;;;;49.90;8.30;;;;;;;;;;5111997;28;20035;-68
2022/05/19 02:19:02;;;;;;;41.55;7.57;;;;;;;;;;5111743;28;20460;-68
2022/05/19 02:21:28;;;;;;;53.53;8.55;;;;;;;;;;5113399;28;20051;-68
2022/05/19 02:23:55;;;;;;;45.15;6.93;;;;;;;;;;5113027;28;20434;-68
2022/05/19 02:26:20;;;;;;;43.00;7.53;;;;;;;;;;5113227;28;20096;-68
2022/05/19 02:28:49;;;;;;;66.22;8.50;;;;;;;;;;5112793;28;20102;-68
2022/05/19 02:31:15;;;;;;;70.43;8.93;;;;;;;;;;5113053;28;20045;-68
2022/05/19 02:33:40;;;;;;;143.70;10.23;;;;;;;;;;5113191;28;20043;-68
2022/05/19 02:36:07;;;;;;;69.47;8.95;;;;;;;;;;5115338;28;20075;-68
2022/05/19 02:38:33;;;;;;;65.07;9.20;;;;;;;;;;5116368;28;20534;-68
2022/05/19 02:40:58;;;;;;;52.40;8.23;;;;;;;;;;5116478;28;20119;-68
2022/05/19 02:43:23;;;;;;;69.57;8.70;;;;;;;;;;5116856;28;20059;-68
2022/05/19 02:45:49;;;;;;;75.38;9.20;;;;;;;;;;5116841;28;20058;-68
2022/05/19 02:48:15;;;;;;;94.20;8.90;;;;;;;;;;5110406;28;20469;-68
2022/05/19 02:50:42;;;;;;;67.35;8.23;;;;;;;;;;5116059;28;20043;-68
2022/05/19 02:53:07;;;;;;;72.50;8.95;;;;;;;;;;5106168;28;20097;-68
2022/05/19 02:55:33;;;;;;;130.70;8.75;;;;;;;;;;5116701;28;20452;-68
2022/05/19 02:57:58;;;;;;;82.05;9.07;;;;;;;;;;5116039;28;20039;-68
2022/05/19 03:00:25;;;;;;;51.63;8.52;;;;;;;;;;5111443;28;20036;-68
2022/05/19 03:02:51;;;;;;;63.53;8.82;;;;;;;;;;5110886;28;20043;-68
2022/05/19 03:05:19;;;;;;;40.38;7.13;;;;;;;;;;5116311;28;20081;-68
2022/05/19 03:07:45;;;;;;;69.53;8.77;;;;;;;;;;5114283;28;20028;-68
2022/05/19 03:10:10;;;;;;;45.55;7.32;;;;;;;;;;5116217;28;20095;-68
2022/05/19 03:12:35;;;;;;;52.75;7.53;;;;;;;;;;5116145;28;20047;-68
2022/05/19 03:15:01;;;;;;;59.58;8.05;;;;;;;;;;5115967;28;20110;-68
2022/05/19 03:17:26;;;;;;;104.05;9.13;;;;;;;;;;5116261;28;20015;-68
2022/05/19 03:19:53;;;;;;;141.32;9.88;;;;;;;;;;5115933;28;20034;-68
2022/05/19 03:22:18;;;;;;;104.65;8.30;;;;;;;;;;5115571;28;20023;-68
2022/05/19 03:24:43;;;;;;;136.60;8.90;;;;;;;;;;5115819;28;20466;-68
2022/05/19 03:27:08;;;;;;;93.85;8.35;;;;;;;;;;5115701;28;20111;-68
2022/05/19 03:29:34;;;;;;;98.60;7.93;;;;;;;;;;5115797;28;20077;-68
2022/05/19 03:31:59;;;;;;;107.53;7.93;;;;;;;;;;5114802;28;20015;-68
2022/05/19 03:34:25;;;;;;;59.72;10.02;;;;;;;;;;5115907;28;20469;-68
2022/05/19 03:36:50;;;;;;;132.25;8.55;;;;;;;;;;5113026;28;20051;-68
2022/05/19 03:39:16;;;;;;;58.22;6.65;;;;;;;;;;5105984;28;20016;-68
2022/05/19 03:41:41;;;;;;;84.28;6.88;;;;;;;;;;5115509;28;20066;-68
2022/05/19 03:44:06;;;;;;;106.32;7.53;;;;;;;;;;5115440;28;20390;-68
2022/05/19 03:46:32;;;;;;;96.75;8.85;;;;;;;;;;5115077;28;20012;-68
2022/05/19 03:48:57;;;;;;;93.05;8.15;;;;;;;;;;5115540;28;20032;-68
2022/05/19 03:51:24;;;;;;;114.95;8.50;;;;;;;;;;5115343;28;20050;-68
2022/05/19 03:53:50;;;;;;;212.05;8.70;;;;;;;;;;5115784;28;20026;-68
2022/05/19 03:56:16;;;;;;;95.88;7.40;;;;;;;;;;5112277;28;20024;-68
2022/05/19 03:58:41;;;;;;;61.95;7.00;;;;;;;;;;5107444;28;20106;-68
2022/05/19 04:01:07;;;;;;;156.52;7.35;;;;;;;;;;5115082;28;20428;-68
2022/05/19 04:03:32;;;;;;;127.90;8.65;;;;;;;;;;5115522;28;20027;-68
2022/05/19 04:05:57;;;;;;;136.98;11.90;;;;;;;;;;5114973;28;20035;-68
2022/05/19 04:08:22;;;;;;;80.90;5.90;;;;;;;;;;5114747;28;20417;-68
2022/05/19 04:10:48;;;;;;;46.55;5.55;;;;;;;;;;5114471;28;20050;-68
2022/05/19 04:13:13;;;;;;;55.85;5.82;;;;;;;;;;5105261;28;20032;-68
2022/05/19 04:15:39;;;;;;;64.10;7.18;;;;;;;;;;5115394;28;20018;-68
2022/05/19 04:18:04;;;;;;;43.08;5.25;;;;;;;;;;5114800;28;20455;-68
2022/05/19 04:20:30;;;;;;;25.77;4.82;;;;;;;;;;5115008;28;20045;-68
2022/05/19 04:22:59;;;;;;;153.48;9.52;;;;;;;;;;5096341;28;20367;-68
2022/05/19 04:25:25;;;;;;;32.63;4.45;;;;;;;;;;5114867;28;20028;-68
2022/05/19 04:27:50;;;;;;;76.57;7.15;;;;;;;;;;5114557;28;20471;-68
2022/05/19 04:30:16;;;;;;;54.83;5.70;;;;;;;;;;5114580;28;20020;-68
2022/05/19 04:32:42;;;;;;;38.30;5.15;;;;;;;;;;5114696;28;20378;-68
2022/05/19 04:35:08;;;;;;;49.08;5.78;;;;;;;;;;5114066;28;20558;-68
2022/05/19 04:37:33;;;;;;;34.10;5.25;;;;;;;;;;5114997;28;20055;-68
2022/05/19 04:40:02;;;;;;;34.10;5.45;;;;;;;;;;5114536;28;20491;-68
2022/05/19 04:42:27;;;;;;;146.25;8.50;;;;;;;;;;5114329;28;20074;-68
2022/05/19 04:44:54;;;;;;;157.10;11.32;;;;;;;;;;5114539;28;20047;-68
2022/05/19 04:47:19;;;;;;;86.07;7.32;;;;;;;;;;5101773;28;20106;-68
2022/05/19 04:49:44;;;;;;;71.22;7.00;;;;;;;;;;5114164;28;20457;-67
2022/05/19 04:52:09;;;;;;;174.35;10.02;;;;;;;;;;5114359;28;20019;-68
2022/05/19 04:54:35;;;;;;;118.50;8.90;;;;;;;;;;5114398;28;20028;-68
2022/05/19 04:57:00;;;;;;;59.65;6.10;;;;;;;;;;5113790;28;20471;-68
2022/05/19 04:59:25;;;;;;;145.57;8.85;;;;;;;;;;5113466;28;20015;-68
2022/05/19 05:01:50;;;;;;;97.38;6.70;;;;;;;;;;5114129;28;20383;-68
2022/05/19 05:04:16;;;;;;;30.10;5.55;;;;;;;;;;5113982;28;20039;-68
2022/05/19 05:06:41;;;;;;;24.33;4.70;;;;;;;;;;5114100;28;20012;-68
2022/05/19 05:09:07;;;;;;;31.55;5.00;;;;;;;;;;5109850;28;20487;-68
2022/05/19 05:11:33;;;;;;;23.65;5.05;;;;;;;;;;5114043;28;20050;-68
2022/05/19 05:13:58;;;;;;;69.20;6.47;;;;;;;;;;5113783;28;20023;-68
2022/05/19 05:16:24;;;;;;;72.22;5.75;;;;;;;;;;5113741;28;20031;-68
2022/05/19 05:18:49;;;;;;;40.03;4.95;;;;;;;;;;5113755;28;20121;-68
2022/05/19 05:21:14;;;;;;;46.75;4.95;;;;;;;;;;5114211;28;20383;-68
2022/05/19 05:23:40;;;;;;;26.58;4.32;;;;;;;;;;5113925;28;20473;-68
2022/05/19 05:26:06;;;;;;;33.58;4.63;;;;;;;;;;5107645;28;20448;-68
2022/05/19 05:28:31;;;;;;;13.80;3.72;;;;;;;;;;5107428;28;20019;-68
2022/05/19 05:30:57;;;;;;;18.27;4.57;;;;;;;;;;5113482;28;20493;-68
2022/05/19 05:33:22;;;;;;;20.10;3.72;;;;;;;;;;5113780;28;20520;-68
2022/05/19 05:35:47;;;;;;;19.77;3.80;;;;;;;;;;5113588;28;20075;-68
2022/05/19 05:38:13;;;;;;;16.83;4.10;;;;;;;;;;5113922;28;20429;-68
2022/05/19 05:40:38;;;;;;;18.02;3.88;;;;;;;;;;5113541;28;20040;-68
2022/05/19 05:43:07;;;;;;;18.13;4.03;;;;;;;;;;5113674;28;20481;-68
2022/05/19 05:45:32;;;;;;;20.50;4.35;;;;;;;;;;5113701;28;20103;-68
2022/05/19 05:47:57;;;;;;;22.67;4.45;;;;;;;;;;5113354;28;20427;-68
2022/05/19 05:50:22;;;;;;;19.15;4.53;;;;;;;;;;5113612;28;20569;-68
2022/05/19 05:52:48;;;;;;;26.52;4.45;;;;;;;;;;5113473;28;20200;-68
2022/05/19 05:55:13;;;;;;;28.58;4.43;;;;;;;;;;5113229;28;20031;-68
2022/05/19 05:57:38;;;;;;;33.03;4.80;;;;;;;;;;5113590;28;20024;-68
2022/05/19 06:00:05;;;;;;;23.38;4.05;;;;;;;;;;5113267;28;20023;-68
2022/05/19 06:02:30;;;;;;;14.63;3.90;;;;;;;;;;5113889;28;20344;-68
2022/05/19 06:04:55;;;;;;;9.57;3.67;;;;;;;;;;5113398;28;20026;-68
2022/05/19 06:07:21;;;;;;;8.63;4.00;;;;;;;;;;5113196;28;20023;-68
2022/05/19 06:09:46;;;;;;;18.42;4.20;;;;;;;;;;5106191;28;20073;-68
2022/05/19 06:12:11;;;;;;;15.18;3.67;;;;;;;;;;5115249;28;20450;-68
2022/05/19 06:14:37;;;;;;;14.13;3.75;;;;;;;;;;5117538;28;20030;-68
2022/05/19 06:17:02;;;;;;;8.70;3.65;;;;;;;;;;5104031;28;20031;-68
2022/05/19 06:19:27;;;;;;;12.43;3.22;;;;;;;;;;5117096;28;20047;-68
2022/05/19 06:21:52;;;;;;;13.15;3.88;;;;;;;;;;5117119;28;20084;-69
2022/05/19 06:24:18;;;;;;;13.40;3.67;;;;;;;;;;5117328;28;20046;-68
2022/05/19 06:26:43;;;;;;;10.85;3.88;;;;;;;;;;5114488;28;20072;-68
2022/05/19 06:29:09;;;;;;;10.35;3.53;;;;;;;;;;5107200;28;20078;-68
2022/05/19 06:31:34;;;;;;;12.18;4.15;;;;;;;;;;5116127;28;20036;-68
2022/05/19 06:34:00;;;;;;;9.77;3.10;;;;;;;;;;5117059;28;20039;-68
2022/05/19 06:36:26;;;;;;;13.88;4.20;;;;;;;;;;5115844;28;20069;-68
2022/05/19 06:38:51;;;;;;;11.38;4.38;;;;;;;;;;5107130;28;20055;-68
2022/05/19 06:44:00;;;;;;;13.25;5.20;;;;;;;;;;5109575;28;20039;-68
2022/05/19 06:46:26;;;;;;;18.55;6.00;;;;;;;;;;5117005;28;20032;-68
2022/05/19 06:48:52;;;;;;;14.80;5.13;;;;;;;;;;5116942;28;20026;-68
2022/05/19 06:51:18;;;;;;;19.13;5.15;;;;;;;;;;5116161;28;20031;-68
2022/05/19 06:53:43;;;;;;;20.65;5.28;;;;;;;;;;5114312;28;20042;-69
2022/05/19 06:56:10;;;;;;;13.35;5.57;;;;;;;;;;5116403;28;20031;-68
2022/05/19 06:58:35;;;;;;;13.77;6.07;;;;;;;;;;5115946;28;20016;-68
2022/05/19 07:01:00;;;;;;;13.43;5.57;;;;;;;;;;5116798;28;20039;-69
2022/05/19 07:03:26;;;;;;;15.20;5.45;;;;;;;;;;5116395;28;20085;-68
2022/05/19 07:05:51;;;;;;;18.20;6.15;;;;;;;;;;5116398;28;20042;-68
2022/05/19 07:08:16;;;;;;;13.40;5.53;;;;;;;;;;5109406;28;20028;-68
2022/05/19 07:10:41;;;;;;;14.43;5.47;;;;;;;;;;5116317;28;20470;-68
2022/05/19 07:13:07;;;;;;;9.85;4.60;;;;;;;;;;5115502;28;20027;-68
2022/05/19 07:15:34;;;;;;;8.82;4.32;;;;;;;;;;5106064;28;20099;-68
2022/05/19 07:17:59;;;;;;;8.85;3.50;;;;;;;;;;5103910;28;20024;-69
2022/05/19 07:23:10;;;;;;;11.35;3.28;;;;;;;;;;5115821;28;20137;-68
2022/05/19 07:25:35;;;;;;;6.95;3.13;;;;;;;;;;5115890;28;20451;-68
2022/05/19 07:28:01;;;;;;;6.82;2.88;;;;;;;;;;5115945;28;20046;-68
2022/05/19 07:30:26;;;;;;;7.82;2.55;;;;;;;;;;5115477;28;20023;-68
2022/05/19 07:32:53;;;;;;;5.97;2.40;;;;;;;;;;5115825;28;20104;-69
2022/05/19 07:35:18;;;;;;;7.22;2.45;;;;;;;;;;5114858;28;20415;-69
2022/05/19 07:37:43;;;;;;;7.50;2.65;;;;;;;;;;5102342;28;20026;-69
2022/05/19 07:40:09;;;;;;;9.90;2.90;;;;;;;;;;5113658;28;20027;-69
2022/05/19 07:42:35;;;;;;;9.23;3.00;;;;;;;;;;5106416;28;20047;-69
2022/05/19 07:45:01;;;;;;;10.52;2.55;;;;;;;;;;5115179;28;20032;-69
2022/05/19 07:47:26;;;;;;;8.63;2.90;;;;;;;;;;5115460;28;20024;-69
2022/05/19 07:49:54;;;;;;;7.45;2.40;;;;;;;;;;5115524;28;20463;-69
2022/05/19 07:52:20;;;;;;;11.40;2.60;;;;;;;;;;5115414;28;20023;-69
2022/05/19 07:54:45;;;;;;;9.65;2.22;;;;;;;;;;5111399;28;20016;-68
2022/05/19 07:57:10;;;;;;;12.60;2.50;;;;;;;;;;5115476;28;20034;-69
2022/05/19 07:59:36;;;;;;;8.32;2.22;;;;;;;;;;5084482;28;20024;-69
2022/05/19 08:02:01;;;;;;;9.15;2.47;;;;;;;;;;5115074;28;20034;-69
2022/05/19 08:04:27;;;;;;;10.10;2.40;;;;;;;;;;5115044;28;20035;-69
2022/05/19 08:06:52;;;;;;;13.13;2.65;;;;;;;;;;5115020;28;20047;-68
2022/05/19 08:12:02;;;;;;;15.60;2.92;;;;;;;;;;5114639;28;20089;-69
2022/05/19 08:17:13;;;;;;;15.02;3.28;;;;;;;;;;5114826;28;20047;-68
2022/05/19 08:19:39;;;;;;;12.70;3.67;;;;;;;;;;5115002;28;20028;-68
2022/05/19 08:22:05;;;;;;;15.30;3.47;;;;;;;;;;5114815;28;20093;-68
2022/05/19 08:24:30;;;;;;;13.73;3.50;;;;;;;;;;5105951;28;20505;-68
2022/05/19 08:26:56;;;;;;;13.13;3.00;;;;;;;;;;5114826;28;20059;-68
2022/05/19 08:29:21;;;;;;;13.25;3.08;;;;;;;;;;5114878;28;20035;-68
2022/05/19 08:31:47;;;;;;;17.40;3.72;;;;;;;;;;5102107;28;20034;-68
2022/05/19 08:34:13;;;;;;;14.15;3.42;;;;;;;;;;5114568;28;20032;-68
2022/05/19 08:36:39;;;;;;;18.38;4.32;;;;;;;;;;5114788;28;20051;-68
2022/05/19 08:39:05;;;;;;;15.40;4.10;;;;;;;;;;5106619;28;20405;-68
2022/05/19 08:41:45;;;;;;;13.30;3.10;;;;;;;;;;5111803;28;20115;-68
2022/05/19 08:44:14;;;;;;;16.13;4.47;;;;;;;;;;5096867;28;20040;-68
2022/05/19 08:46:41;;;;;;;21.02;4.15;;;;;;;;;;5108739;28;20030;-68
2022/05/19 08:49:13;;;;;;;13.05;4.22;;;;;;;;;;5111731;28;20111;-69
2022/05/19 08:51:50;;;;;;;17.75;4.05;;;;;;;;;;5102437;28;20501;-68
2022/05/19 08:54:20;;;;;;;23.10;4.18;;;;;;;;;;5113722;28;20064;-69
2022/05/19 08:56:53;;;;;;;15.93;4.22;;;;;;;;;;5114282;28;20475;-68
2022/05/19 08:59:18;;;;;;;17.33;4.10;;;;;;;;;;5114137;28;20095;-68
2022/05/19 09:02:12;;;;;;;14.27;3.85;;;;;;;;;;5114044;28;20202;-69
2022/05/19 09:04:46;;;;;;;12.55;3.78;;;;;;;;;;5103117;28;20036;-68
2022/05/19 09:10:07;;;;;;;20.27;4.32;;;;;;;;;;5112919;28;20041;-68
2022/05/19 09:12:35;;;;;;;20.52;3.60;;;;;;;;;;5113502;28;20118;-68
2022/05/19 09:15:02;;;;;;;19.95;4.07;;;;;;;;;;5113721;28;20059;-69
2022/05/19 09:17:28;;;;;;;15.15;3.90;;;;;;;;;;5113971;28;20084;-68
2022/05/19 09:19:55;;;;;;;19.33;3.53;;;;;;;;;;5113978;28;20064;-68
2022/05/19 09:22:22;;;;;;;19.63;4.32;;;;;;;;;;5113696;28;20066;-68
2022/05/19 09:24:49;;;;;;;20.20;3.90;;;;;;;;;;5113892;28;20039;-68
2022/05/19 09:27:14;;;;;;;13.85;3.50;;;;;;;;;;5113577;28;20020;-69
2022/05/19 09:29:49;;;;;;;14.20;3.83;;;;;;;;;;5113574;28;20120;-68
2022/05/19 09:32:26;;;;;;;14.00;3.55;;;;;;;;;;5112993;28;20501;-68
2022/05/19 09:35:00;;;;;;;11.00;3.22;;;;;;;;;;5106282;28;20020;-68
2022/05/19 09:37:29;;;;;;;11.73;3.42;;;;;;;;;;5109557;28;20028;-69
2022/05/19 09:40:14;;;;;;;14.63;3.03;;;;;;;;;;5113608;28;20030;-69
2022/05/19 09:42:55;;;;;;;14.35;3.30;;;;;;;;;;5109342;28;20126;-69
2022/05/19 09:45:21;;;;;;;15.68;4.13;;;;;;;;;;5113075;28;20027;-68
2022/05/19 09:47:48;;;;;;;18.08;3.60;;;;;;;;;;5113542;28;20098;-69
2022/05/19 09:50:25;;;;;;;17.20;3.88;;;;;;;;;;5112969;28;20032;-69
2022/05/19 09:52:50;;;;;;;17.73;3.72;;;;;;;;;;5113690;28;20023;-69
2022/05/19 09:55:19;;;;;;;13.52;3.92;;;;;;;;;;5113585;28;20115;-69
2022/05/19 09:57:51;;;;;;;56.33;6.13;;;;;;;;;;5113383;28;20027;-69
2022/05/19 10:00:45;;;;;;;17.40;4.10;;;;;;;;;;5113012;28;20436;-69
2022/05/19 10:03:17;;;;;;;25.08;4.78;;;;;;;;;;5095086;28;20043;-69
2022/05/19 10:05:42;;;;;;;12.75;3.33;;;;;;;;;;5113533;28;20063;-69
2022/05/19 10:08:14;;;;;;;16.17;3.75;;;;;;;;;;5111198;28;20475;-69
2022/05/19 10:10:45;;;;;;;17.73;4.00;;;;;;;;;;5113187;28;20031;-69
2022/05/19 10:13:11;;;;;;;14.73;3.25;;;;;;;;;;5109610;28;20067;-69
2022/05/19 10:15:41;;;;;;;15.52;3.75;;;;;;;;;;5113049;28;20428;-69
2022/05/19 10:18:22;;;;;;;13.82;3.50;;;;;;;;;;5112996;28;20553;-69
2022/05/19 10:21:10;;;;;;;12.68;3.30;;;;;;;;;;5112060;28;20042;-69
2022/05/19 10:23:41;;;;;;;14.52;3.45;;;;;;;;;;5058139;28;20040;-68
2022/05/19 10:26:24;;;;;;;15.02;3.38;;;;;;;;;;5112746;28;20490;-69
2022/05/19 10:31:55;;;;;;;11.35;3.30;;;;;;;;;;5101137;28;20119;-69
2022/05/19 10:34:23;;;;;;;12.70;3.33;;;;;;;;;;5112989;28;20071;-69
2022/05/19 10:36:54;;;;;;;15.98;3.90;;;;;;;;;;5113104;28;20035;-68
2022/05/19 10:39:25;;;;;;;12.82;3.08;;;;;;;;;;5112656;28;20494;-69
2022/05/19 10:42:09;;;;;;;14.68;3.53;;;;;;;;;;5106985;28;20028;-69
2022/05/19 10:44:53;;;;;;;12.43;3.38;;;;;;;;;;5107912;28;20051;-68
2022/05/19 10:47:21;;;;;;;13.25;3.00;;;;;;;;;;5103831;28;20027;-68
2022/05/19 10:49:49;;;;;;;9.35;2.60;;;;;;;;;;5113063;28;20034;-68
2022/05/19 10:52:33;;;;;;;11.75;3.03;;;;;;;;;;5112869;28;20027;-68
2022/05/19 10:55:17;;;;;;;12.55;2.53;;;;;;;;;;5093287;28;20038;-68
2022/05/19 10:58:01;;;;;;;10.85;2.38;;;;;;;;;;5113211;28;20557;-68
2022/05/19 11:00:35;;;;;;;10.27;2.08;;;;;;;;;;5116517;28;20036;-68
2022/05/19 11:03:39;;;;;;;12.43;2.40;;;;;;;;;;5107027;28;20102;-68
2022/05/19 11:06:10;;;;;;;8.90;1.90;;;;;;;;;;5013498;28;20030;-68
2022/05/19 11:08:47;;;;;;;13.18;2.05;;;;;;;;;;5005869;28;20045;-68
2022/05/19 11:11:21;;;;;;;5.85;1.90;;;;;;;;;;5057632;28;20097;-68
2022/05/19 11:13:52;;;;;;;10.15;2.35;;;;;;;;;;5114348;28;20115;-69
2022/05/19 11:16:31;;;;;;;18.17;2.78;;;;;;;;;;5116102;28;20043;-68
2022/05/19 11:19:00;;;;;;;15.40;2.75;;;;;;;;;;5108714;28;20061;-68
2022/05/19 11:21:31;;;;;;;14.10;2.38;;;;;;;;;;5116186;28;20027;-68
2022/05/19 11:24:05;;;;;;;14.43;2.72;;;;;;;;;;5115783;28;20414;-69
2022/05/19 11:26:39;;;;;;;18.52;3.00;;;;;;;;;;5116177;28;20119;-68
2022/05/19 11:29:16;;;;;;;20.60;2.20;;;;;;;;;;5115950;28;20070;-68
2022/05/19 11:32:04;;;;;;;12.50;2.42;;;;;;;;;;5103217;28;20046;-68
2022/05/19 11:34:39;;;;;;;20.17;2.75;;;;;;;;;;5102929;28;20036;-68
2022/05/19 11:37:17;;;;;;;21.85;2.72;;;;;;;;;;5116019;28;20056;-69
2022/05/19 11:39:45;;;;;;;17.02;3.17;;;;;;;;;;5115067;28;20035;-68
2022/05/19 11:42:30;;;;;;;12.48;2.10;;;;;;;;;;5115783;28;20032;-68
2022/05/19 11:44:56;;;;;;;16.50;2.42;;;;;;;;;;5045535;28;20479;-68
2022/05/19 11:55:55;;;;;;;;;;;;;;;;;;5110739;28;20034;-68
2022/05/19 11:58:23;;;;;;;13.68;2.53;;;;;;;;;;5115299;28;19912;-68
2022/05/19 12:00:58;;;;;;;8.23;2.20;;;;;;;;;;5113504;28;20037;-69
2022/05/19 12:03:43;;;;;;;11.38;2.08;;;;;;;;;;5115161;28;20110;-68
2022/05/19 12:06:09;;;;;;;13.98;2.22;;;;;;;;;;5115414;28;20028;-68
2022/05/19 12:08:36;;;;;;;11.30;2.05;;;;;;;;;;5111625;28;20030;-68
2022/05/19 12:11:13;;;;;;;9.63;1.60;;;;;;;;;;5114977;28;20166;-69
2022/05/19 12:13:40;;;;;;;8.65;1.35;;;;;;;;;;5105322;28;20526;-68
2022/05/19 12:16:10;;;;;;;5.85;1.50;;;;;;;;;;5111254;28;20027;-69
2022/05/19 12:18:37;;;;;;;7.50;1.65;;;;;;;;;;5105565;28;20416;-68
2022/05/19 12:21:03;;;;;;;8.32;1.55;;;;;;;;;;5115077;28;20035;-69
2022/05/19 12:23:32;;;;;;;7.10;1.48;;;;;;;;;;5114819;28;20031;-69
2022/05/19 12:25:59;;;;;;;10.05;1.70;;;;;;;;;;5114530;28;20020;-68
2022/05/19 12:28:30;;;;;;;8.10;1.98;;;;;;;;;;5114995;28;20360;-68
2022/05/19 12:33:50;;;;;;;15.70;2.20;;;;;;;;;;5114520;28;20540;-68
2022/05/19 12:36:31;;;;;;;9.60;1.77;;;;;;;;;;5114476;28;20052;-68
2022/05/19 12:39:11;;;;;;;12.18;2.00;;;;;;;;;;5111726;28;20027;-68
2022/05/19 12:41:37;;;;;;;9.60;1.92;;;;;;;;;;5114199;28;20577;-68
2022/05/19 12:44:21;;;;;;;12.55;2.30;;;;;;;;;;5112960;28;20102;-69
2022/05/19 12:46:46;;;;;;;12.73;2.60;;;;;;;;;;5114545;28;20027;-68
2022/05/19 12:49:23;;;;;;;9.95;1.77;;;;;;;;;;5114411;28;20473;-68
2022/05/19 12:51:58;;;;;;;10.25;1.70;;;;;;;;;;5105805;28;20514;-68
2022/05/19 12:54:25;;;;;;;10.73;2.45;;;;;;;;;;5102173;28;20115;-68
2022/05/19 12:56:55;;;;;;;13.60;2.63;;;;;;;;;;5114195;28;20039;-68
2022/05/19 12:59:31;;;;;;;8.52;1.55;;;;;;;;;;5114236;28;20024;-68
2022/05/19 13:02:01;;;;;;;12.98;1.92;;;;;;;;;;5114171;28;20016;-68
2022/05/19 13:04:31;;;;;;;7.53;1.83;;;;;;;;;;5114190;28;20027;-68
2022/05/19 13:07:03;;;;;;;13.02;2.00;;;;;;;;;;5114001;28;20374;-69
2022/05/19 13:09:29;;;;;;;11.93;2.08;;;;;;;;;;5108295;28;20028;-68
2022/05/19 13:11:56;;;;;;;12.82;1.73;;;;;;;;;;5113807;28;20387;-68
2022/05/19 13:14:42;;;;;;;12.60;2.10;;;;;;;;;;5114069;28;20024;-68
2022/05/19 13:17:14;;;;;;;12.38;2.22;;;;;;;;;;5101673;28;20027;-69
2022/05/19 13:19:40;;;;;;;13.23;2.20;;;;;;;;;;5101723;28;20070;-68
2022/05/19 13:22:10;;;;;;;12.68;1.83;;;;;;;;;;5112745;28;20064;-68
2022/05/19 13:24:37;;;;;;;8.27;1.73;;;;;;;;;;5113876;28;20058;-68
2022/05/19 13:32:34;;;;;;;10.35;2.15;;;;;;;;;;5113570;28;20085;-68
2022/05/19 13:35:05;;;;;;;11.40;2.10;;;;;;;;;;5113561;28;20050;-68
2022/05/19 13:37:30;;;;;;;11.00;2.08;;;;;;;;;;5113656;28;20040;-69
2022/05/19 13:40:14;;;;;;;10.55;2.80;;;;;;;;;;5113132;28;20019;-68
2022/05/19 13:42:39;;;;;;;;;;;;;;;;;;5113957;28;20042;-68
2022/05/19 13:45:05;;;;;;;9.40;2.08;;;;;;;;;;5113535;28;19908;-69
2022/05/19 13:47:31;;;;;;;8.40;1.70;;;;;;;;;;5113656;28;20287;-68
2022/05/19 13:50:02;;;;;;;10.23;2.10;;;;;;;;;;5113648;28;20027;-68
2022/05/19 13:52:29;;;;;;;10.80;1.90;;;;;;;;;;5113240;28;20486;-68
2022/05/19 13:54:55;;;;;;;12.77;1.73;;;;;;;;;;5113392;28;20036;-68
2022/05/19 13:57:25;;;;;;;9.50;1.70;;;;;;;;;;5113496;28;20068;-68
2022/05/19 13:59:53;;;;;;;12.07;1.92;;;;;;;;;;5113432;28;20024;-68
2022/05/19 14:02:22;;;;;;;10.48;1.70;;;;;;;;;;5101230;28;20035;-68
2022/05/19 14:04:47;;;;;;;10.25;1.30;;;;;;;;;;5113431;28;20024;-69
2022/05/19 14:07:14;;;;;;;7.47;1.92;;;;;;;;;;5113329;28;20043;-69
2022/05/19 14:09:54;;;;;;;7.13;1.42;;;;;;;;;;5108672;28;20117;-68
2022/05/19 14:12:19;;;;;;;6.88;1.60;;;;;;;;;;5113406;28;20435;-69
2022/05/19 14:14:48;;;;;;;7.25;1.58;;;;;;;;;;5113218;28;20088;-68
2022/05/19 14:17:14;;;;;;;9.48;1.50;;;;;;;;;;5112830;28;20421;-69
2022/05/19 14:19:40;;;;;;;5.32;1.23;;;;;;;;;;5113026;28;20119;-68
2022/05/19 14:22:05;;;;;;;6.32;1.67;;;;;;;;;;5113415;28;20047;-68
2022/05/19 14:24:31;;;;;;;10.10;1.30;;;;;;;;;;5110990;28;20450;-68
2022/05/19 14:26:57;;;;;;;6.45;1.35;;;;;;;;;;5113146;28;20028;-68
2022/05/19 14:29:24;;;;;;;8.07;1.60;;;;;;;;;;5112927;28;20036;-68
2022/05/19 14:32:00;;;;;;;8.15;1.38;;;;;;;;;;5116691;28;20294;-68
2022/05/19 14:34:35;;;;;;;8.35;1.75;;;;;;;;;;5106089;28;20031;-68
2022/05/19 14:37:06;;;;;;;10.73;1.48;;;;;;;;;;5106147;28;20075;-68
2022/05/19 14:39:44;;;;;;;4.22;1.10;;;;;;;;;;5117139;28;20050;-68
2022/05/19 14:44:56;;;;;;;5.72;1.52;;;;;;;;;;5116633;28;20097;-68
2022/05/19 14:47:22;;;;;;;7.53;1.58;;;;;;;;;;5116689;28;20047;-69
2022/05/19 14:50:02;;;;;;;5.13;1.40;;;;;;;;;;5104870;28;20027;-68
2022/05/19 14:52:33;;;;;;;10.00;1.55;;;;;;;;;;5106247;28;20085;-68
2022/05/19 14:54:59;;;;;;;8.52;2.20;;;;;;;;;;5114792;28;20471;-69
2022/05/19 14:57:27;;;;;;;5.78;1.92;;;;;;;;;;5106397;28;20024;-68
2022/05/19 14:59:55;;;;;;;5.57;1.40;;;;;;;;;;5116233;28;20020;-68
2022/05/19 15:02:21;;;;;;;12.70;2.35;;;;;;;;;;5085549;28;20119;-68
2022/05/19 15:04:47;;;;;;;6.53;1.27;;;;;;;;;;5104605;28;20020;-69
2022/05/19 15:07:17;;;;;;;5.75;1.60;;;;;;;;;;5116098;28;20045;-68
2022/05/19 15:09:42;;;;;;;11.85;1.70;;;;;;;;;;5096779;28;20031;-68
2022/05/19 15:12:08;;;;;;;8.10;1.60;;;;;;;;;;5111851;28;20489;-69
2022/05/19 15:14:33;;;;;;;5.80;1.27;;;;;;;;;;5116206;28;20032;-68
2022/05/19 15:16:58;;;;;;;9.25;1.75;;;;;;;;;;5116154;28;20061;-68